sensor_id;sensor_type;location;lat;lon;timestamp;temperature;humidity
24176;DHT22;12324;48.146;11.502;2023-04-07T00:01:23;4.50;99.90
24176;DHT22;12324;48.146;11.502;2023-04-07T00:03:51;4.50;99.90
24176;DHT22;12324;48.146;11.502;2023-04-07T00:06:18;4.60;99.90
24176;DHT22;12324;48.146;11.502;2023-04-07T00:08:44;4.60;99.90
24176;DHT22;12324;48.146;11.502;2023-04-07T00:11:11;4.50;99.90
24176;DHT22;12324;48.146;11.502;2023-04-07T00:13:37;4.60;99.90
24176;DHT22;12324;48.146;11.502;2023-04-07T00:16:04;4.50;99.90
24176;DHT22;12324;48.146;11.502;2023-04-07T00:18:31;4.60;99.90
24176;DHT22;12324;48.146;11.502;2023-04-07T00:20:58;4.50;99.90
24176;DHT22;12324;48.146;11.502;2023-04-07T00:23:24;4.50;99.90
24176;DHT22;12324;48.146;11.502;2023-04-07T00:25:51;4.60;99.90
24176;DHT22;12324;48.146;11.502;2023-04-07T00:28:17;4.60;99.90
24176;DHT22;12324;48.146;11.502;2023-04-07T00:30:44;4.60;99.90
24176;DHT22;12324;48.146;11.502;2023-04-07T00:33:11;4.60;99.90
24176;DHT22;12324;48.146;11.502;2023-04-07T00:35:38;4.70;99.90
24176;DHT22;12324;48.146;11.502;2023-04-07T00:38:04;4.60;99.90
24176;DHT22;12324;48.146;11.502;2023-04-07T00:40:32;4.60;99.90
24176;DHT22;12324;48.146;11.502;2023-04-07T00:42:58;4.70;99.90
24176;DHT22;12324;48.146;11.502;2023-04-07T00:45:25;4.60;99.90
24176;DHT22;12324;48.146;11.502;2023-04-07T00:47:52;4.70;99.90
24176;DHT22;12324;48.146;11.502;2023-04-07T00:50:18;4.70;99.90
24176;DHT22;12324;48.146;11.502;2023-04-07T00:52:45;4.70;99.90
24176;DHT22;12324;48.146;11.502;2023-04-07T00:55:12;4.70;99.90
24176;DHT22;12324;48.146;11.502;2023-04-07T00:57:38;4.80;99.90
24176;DHT22;12324;48.146;11.502;2023-04-07T01:00:06;4.70;99.90
24176;DHT22;12324;48.146;11.502;2023-04-07T01:05:16;4.80;99.90
24176;DHT22;12324;48.146;11.502;2023-04-07T01:08:07;4.80;99.90
24176;DHT22;12324;48.146;11.502;2023-04-07T01:10:45;4.80;99.90
24176;DHT22;12324;48.146;11.502;2023-04-07T01:13:22;4.80;99.90
24176;DHT22;12324;48.146;11.502;2023-04-07T01:15:51;4.80;99.90
24176;DHT22;12324;48.146;11.502;2023-04-07T01:18:30;4.70;99.90
24176;DHT22;12324;48.146;11.502;2023-04-07T01:21:06;4.80;99.90
24176;DHT22;12324;48.146;11.502;2023-04-07T01:24:00;4.80;99.90
24176;DHT22;12324;48.146;11.502;2023-04-07T01:26:30;4.80;99.90
24176;DHT22;12324;48.146;11.502;2023-04-07T01:29:36;4.70;99.90
24176;DHT22;12324;48.146;11.502;2023-04-07T01:31:59;4.70;99.90
24176;DHT22;12324;48.146;11.502;2023-04-07T01:34:28;4.70;99.90
24176;DHT22;12324;48.146;11.502;2023-04-07T01:36:56;4.60;99.90
24176;DHT22;12324;48.146;11.502;2023-04-07T01:39:26;4.60;99.90
24176;DHT22;12324;48.146;11.502;2023-04-07T01:41:53;4.60;99.90
24176;DHT22;12324;48.146;11.502;2023-04-07T01:44:21;4.70;99.90
24176;DHT22;12324;48.146;11.502;2023-04-07T01:46:49;4.70;99.90
24176;DHT22;12324;48.146;11.502;2023-04-07T01:49:19;4.70;99.90
24176;DHT22;12324;48.146;11.502;2023-04-07T01:51:48;4.70;99.90
24176;DHT22;12324;48.146;11.502;2023-04-07T01:54:16;4.70;99.90
24176;DHT22;12324;48.146;11.502;2023-04-07T01:56:43;4.70;99.90
24176;DHT22;12324;48.146;11.502;2023-04-07T01:59:10;4.80;99.90
24176;DHT22;12324;48.146;11.502;2023-04-07T02:01:37;4.80;99.90
24176;DHT22;12324;48.146;11.502;2023-04-07T02:04:18;4.90;99.90
24176;DHT22;12324;48.146;11.502;2023-04-07T02:06:52;4.80;99.90
24176;DHT22;12324;48.146;11.502;2023-04-07T02:09:21;4.80;99.90
24176;DHT22;12324;48.146;11.502;2023-04-07T02:11:49;4.90;99.90
24176;DHT22;12324;48.146;11.502;2023-04-07T02:14:18;4.90;99.90
24176;DHT22;12324;48.146;11.502;2023-04-07T02:16:48;4.90;99.90
24176;DHT22;12324;48.146;11.502;2023-04-07T02:19:15;4.90;99.90
24176;DHT22;12324;48.146;11.502;2023-04-07T02:21:43;4.90;99.90
24176;DHT22;12324;48.146;11.502;2023-04-07T02:24:11;4.90;99.90
24176;DHT22;12324;48.146;11.502;2023-04-07T02:26:38;5.00;99.90
24176;DHT22;12324;48.146;11.502;2023-04-07T02:29:04;5.00;99.90
24176;DHT22;12324;48.146;11.502;2023-04-07T02:31:31;5.00;99.90
24176;DHT22;12324;48.146;11.502;2023-04-07T02:33:58;5.00;99.90
24176;DHT22;12324;48.146;11.502;2023-04-07T02:36:25;5.20;99.90
24176;DHT22;12324;48.146;11.502;2023-04-07T02:38:52;5.30;99.90
24176;DHT22;12324;48.146;11.502;2023-04-07T02:41:19;5.30;99.90
24176;DHT22;12324;48.146;11.502;2023-04-07T02:43:46;5.40;99.90
24176;DHT22;12324;48.146;11.502;2023-04-07T02:46:13;5.40;99.90
24176;DHT22;12324;48.146;11.502;2023-04-07T02:48:42;5.30;99.90
24176;DHT22;12324;48.146;11.502;2023-04-07T02:51:08;5.30;99.90
24176;DHT22;12324;48.146;11.502;2023-04-07T02:53:35;5.40;99.90
24176;DHT22;12324;48.146;11.502;2023-04-07T02:56:02;5.30;99.90
24176;DHT22;12324;48.146;11.502;2023-04-07T02:58:28;5.40;99.90
24176;DHT22;12324;48.146;11.502;2023-04-07T03:00:55;5.30;99.90
24176;DHT22;12324;48.146;11.502;2023-04-07T03:03:22;5.30;99.90
24176;DHT22;12324;48.146;11.502;2023-04-07T03:05:48;5.30;99.90
24176;DHT22;12324;48.146;11.502;2023-04-07T03:08:15;5.20;99.90
24176;DHT22;12324;48.146;11.502;2023-04-07T03:10:42;5.20;99.90
24176;DHT22;12324;48.146;11.502;2023-04-07T03:13:09;5.20;99.90
24176;DHT22;12324;48.146;11.502;2023-04-07T03:15:38;5.20;99.90
24176;DHT22;12324;48.146;11.502;2023-04-07T03:18:04;5.10;99.90
24176;DHT22;12324;48.146;11.502;2023-04-07T03:20:31;5.20;99.90
24176;DHT22;12324;48.146;11.502;2023-04-07T03:22:58;5.30;99.90
24176;DHT22;12324;48.146;11.502;2023-04-07T03:25:25;5.10;99.90
24176;DHT22;12324;48.146;11.502;2023-04-07T03:27:53;5.10;99.90
24176;DHT22;12324;48.146;11.502;2023-04-07T03:30:19;5.00;99.90
24176;DHT22;12324;48.146;11.502;2023-04-07T03:32:46;5.00;99.90
24176;DHT22;12324;48.146;11.502;2023-04-07T03:35:13;5.10;99.90
24176;DHT22;12324;48.146;11.502;2023-04-07T03:37:39;5.10;99.90
24176;DHT22;12324;48.146;11.502;2023-04-07T03:40:06;5.10;99.90
24176;DHT22;12324;48.146;11.502;2023-04-07T03:42:33;4.90;99.90
24176;DHT22;12324;48.146;11.502;2023-04-07T03:45:00;4.90;99.90
24176;DHT22;12324;48.146;11.502;2023-04-07T03:47:27;4.90;99.90
24176;DHT22;12324;48.146;11.502;2023-04-07T03:49:53;4.90;99.90
24176;DHT22;12324;48.146;11.502;2023-04-07T03:52:20;4.80;99.90
24176;DHT22;12324;48.146;11.502;2023-04-07T03:54:47;4.80;99.90
24176;DHT22;12324;48.146;11.502;2023-04-07T03:57:13;4.80;99.90
24176;DHT22;12324;48.146;11.502;2023-04-07T03:59:40;4.80;99.90
24176;DHT22;12324;48.146;11.502;2023-04-07T04:02:07;4.80;99.90
24176;DHT22;12324;48.146;11.502;2023-04-07T04:04:34;4.70;99.90
24176;DHT22;12324;48.146;11.502;2023-04-07T04:07:00;4.70;99.90
24176;DHT22;12324;48.146;11.502;2023-04-07T04:09:27;4.70;99.90
24176;DHT22;12324;48.146;11.502;2023-04-07T04:11:54;4.70;99.90
24176;DHT22;12324;48.146;11.502;2023-04-07T04:14:22;4.60;99.90
24176;DHT22;12324;48.146;11.502;2023-04-07T04:16:49;4.60;99.90
24176;DHT22;12324;48.146;11.502;2023-04-07T04:19:15;4.60;99.90
24176;DHT22;12324;48.146;11.502;2023-04-07T04:21:42;4.50;99.90
24176;DHT22;12324;48.146;11.502;2023-04-07T04:24:09;4.50;99.90
24176;DHT22;12324;48.146;11.502;2023-04-07T04:26:36;4.60;99.90
24176;DHT22;12324;48.146;11.502;2023-04-07T04:29:02;4.60;99.90
24176;DHT22;12324;48.146;11.502;2023-04-07T04:31:29;4.60;99.90
24176;DHT22;12324;48.146;11.502;2023-04-07T04:33:56;4.50;99.90
24176;DHT22;12324;48.146;11.502;2023-04-07T04:36:23;4.50;99.90
24176;DHT22;12324;48.146;11.502;2023-04-07T04:38:49;4.50;99.90
24176;DHT22;12324;48.146;11.502;2023-04-07T04:41:16;4.40;99.90
24176;DHT22;12324;48.146;11.502;2023-04-07T04:43:43;4.30;99.90
24176;DHT22;12324;48.146;11.502;2023-04-07T04:46:10;4.40;99.90
24176;DHT22;12324;48.146;11.502;2023-04-07T04:48:37;4.40;99.90
24176;DHT22;12324;48.146;11.502;2023-04-07T04:51:04;4.30;99.90
24176;DHT22;12324;48.146;11.502;2023-04-07T04:53:31;4.30;99.90
24176;DHT22;12324;48.146;11.502;2023-04-07T04:55:58;4.30;99.90
24176;DHT22;12324;48.146;11.502;2023-04-07T04:58:24;4.40;99.90
24176;DHT22;12324;48.146;11.502;2023-04-07T05:00:54;4.40;99.90
24176;DHT22;12324;48.146;11.502;2023-04-07T05:03:26;4.30;99.90
24176;DHT22;12324;48.146;11.502;2023-04-07T05:05:53;4.30;99.90
24176;DHT22;12324;48.146;11.502;2023-04-07T05:08:20;4.30;99.90
24176;DHT22;12324;48.146;11.502;2023-04-07T05:10:46;4.20;99.90
24176;DHT22;12324;48.146;11.502;2023-04-07T05:13:13;4.20;99.90
24176;DHT22;12324;48.146;11.502;2023-04-07T05:15:41;4.20;99.90
24176;DHT22;12324;48.146;11.502;2023-04-07T05:18:07;4.30;99.90
24176;DHT22;12324;48.146;11.502;2023-04-07T05:20:34;4.30;99.90
24176;DHT22;12324;48.146;11.502;2023-04-07T05:23:01;4.20;99.90
24176;DHT22;12324;48.146;11.502;2023-04-07T05:25:28;4.10;99.90
24176;DHT22;12324;48.146;11.502;2023-04-07T05:27:56;4.10;99.90
24176;DHT22;12324;48.146;11.502;2023-04-07T05:30:23;4.00;99.90
24176;DHT22;12324;48.146;11.502;2023-04-07T05:32:52;4.10;99.90
24176;DHT22;12324;48.146;11.502;2023-04-07T05:35:20;4.30;99.90
24176;DHT22;12324;48.146;11.502;2023-04-07T05:37:47;4.30;99.90
24176;DHT22;12324;48.146;11.502;2023-04-07T05:40:14;4.40;99.90
24176;DHT22;12324;48.146;11.502;2023-04-07T05:42:41;4.40;99.90
24176;DHT22;12324;48.146;11.502;2023-04-07T05:45:09;4.40;99.90
24176;DHT22;12324;48.146;11.502;2023-04-07T05:47:35;4.40;99.90
24176;DHT22;12324;48.146;11.502;2023-04-07T05:50:02;4.50;99.90
24176;DHT22;12324;48.146;11.502;2023-04-07T05:52:29;4.60;99.90
24176;DHT22;12324;48.146;11.502;2023-04-07T05:54:56;4.70;99.90
24176;DHT22;12324;48.146;11.502;2023-04-07T05:57:23;4.70;99.90
24176;DHT22;12324;48.146;11.502;2023-04-07T05:59:49;4.80;99.90
24176;DHT22;12324;48.146;11.502;2023-04-07T06:02:16;4.80;99.90
24176;DHT22;12324;48.146;11.502;2023-04-07T06:04:43;4.90;99.90
24176;DHT22;12324;48.146;11.502;2023-04-07T06:07:09;4.80;99.90
24176;DHT22;12324;48.146;11.502;2023-04-07T06:09:36;5.00;99.90
24176;DHT22;12324;48.146;11.502;2023-04-07T06:12:03;5.10;99.90
24176;DHT22;12324;48.146;11.502;2023-04-07T06:14:32;4.90;99.90
24176;DHT22;12324;48.146;11.502;2023-04-07T06:16:58;5.00;99.90
24176;DHT22;12324;48.146;11.502;2023-04-07T06:19:26;5.10;99.90
24176;DHT22;12324;48.146;11.502;2023-04-07T06:21:53;5.20;99.90
24176;DHT22;12324;48.146;11.502;2023-04-07T06:24:19;5.00;99.90
24176;DHT22;12324;48.146;11.502;2023-04-07T06:26:48;5.00;99.90
24176;DHT22;12324;48.146;11.502;2023-04-07T06:29:14;5.10;99.90
24176;DHT22;12324;48.146;11.502;2023-04-07T08:07:26;5.30;99.90
24176;DHT22;12324;48.146;11.502;2023-04-07T08:09:53;7.90;99.90
24176;DHT22;12324;48.146;11.502;2023-04-07T08:12:20;7.60;99.90
24176;DHT22;12324;48.146;11.502;2023-04-07T08:14:46;7.40;99.90
24176;DHT22;12324;48.146;11.502;2023-04-07T08:17:14;7.50;99.90
24176;DHT22;12324;48.146;11.502;2023-04-07T08:19:41;7.80;99.90
24176;DHT22;12324;48.146;11.502;2023-04-07T08:24:35;8.10;99.90
24176;DHT22;12324;48.146;11.502;2023-04-07T10:08:42;8.30;99.90
24176;DHT22;12324;48.146;11.502;2023-04-07T10:38:39;11.80;99.90
24176;DHT22;12324;48.146;11.502;2023-04-07T10:41:33;12.60;99.90
24176;DHT22;12324;48.146;11.502;2023-04-07T10:44:04;12.50;99.90
24176;DHT22;12324;48.146;11.502;2023-04-07T10:49:14;11.90;99.90
24176;DHT22;12324;48.146;11.502;2023-04-07T10:54:38;11.80;99.90
24176;DHT22;12324;48.146;11.502;2023-04-07T10:59:37;11.70;99.90
24176;DHT22;12324;48.146;11.502;2023-04-07T11:04:44;11.90;99.90
24176;DHT22;12324;48.146;11.502;2023-04-07T11:07:13;12.00;99.90
24176;DHT22;12324;48.146;11.502;2023-04-07T11:09:40;12.30;99.90
24176;DHT22;12324;48.146;11.502;2023-04-07T11:19:50;12.40;99.90
24176;DHT22;12324;48.146;11.502;2023-04-07T11:22:17;13.10;99.90
24176;DHT22;12324;48.146;11.502;2023-04-07T11:24:55;12.50;99.90
24176;DHT22;12324;48.146;11.502;2023-04-07T11:27:22;12.60;99.90
24176;DHT22;12324;48.146;11.502;2023-04-07T11:29:49;12.60;99.90
24176;DHT22;12324;48.146;11.502;2023-04-07T11:32:21;12.50;99.90
24176;DHT22;12324;48.146;11.502;2023-04-07T11:34:51;12.40;99.90
24176;DHT22;12324;48.146;11.502;2023-04-07T11:37:25;12.40;99.90
24176;DHT22;12324;48.146;11.502;2023-04-07T11:39:55;12.30;99.90
24176;DHT22;12324;48.146;11.502;2023-04-07T11:42:38;12.10;99.90
24176;DHT22;12324;48.146;11.502;2023-04-07T11:45:15;12.40;99.90
24176;DHT22;12324;48.146;11.502;2023-04-07T11:47:42;12.60;99.90
24176;DHT22;12324;48.146;11.502;2023-04-07T11:50:09;12.60;99.90
24176;DHT22;12324;48.146;11.502;2023-04-07T11:52:46;12.80;99.90
24176;DHT22;12324;48.146;11.502;2023-04-07T11:57:47;13.40;99.90
24176;DHT22;12324;48.146;11.502;2023-04-07T12:00:16;13.60;99.20
24176;DHT22;12324;48.146;11.502;2023-04-07T12:02:43;13.40;99.90
24176;DHT22;12324;48.146;11.502;2023-04-07T12:05:11;13.30;99.90
24176;DHT22;12324;48.146;11.502;2023-04-07T12:07:38;13.10;99.90
24176;DHT22;12324;48.146;11.502;2023-04-07T12:10:21;13.00;99.90
24176;DHT22;12324;48.146;11.502;2023-04-07T12:12:48;12.80;99.90
24176;DHT22;12324;48.146;11.502;2023-04-07T12:15:15;12.70;99.90
24176;DHT22;12324;48.146;11.502;2023-04-07T12:17:46;12.80;99.90
24176;DHT22;12324;48.146;11.502;2023-04-07T12:20:14;12.60;99.90
24176;DHT22;12324;48.146;11.502;2023-04-07T12:22:41;12.80;99.90
24176;DHT22;12324;48.146;11.502;2023-04-07T12:25:08;12.70;99.90
24176;DHT22;12324;48.146;11.502;2023-04-07T12:27:34;12.70;99.90
24176;DHT22;12324;48.146;11.502;2023-04-07T12:30:09;12.90;99.90
24176;DHT22;12324;48.146;11.502;2023-04-07T12:32:36;12.80;99.90
24176;DHT22;12324;48.146;11.502;2023-04-07T12:35:04;12.80;99.90
24176;DHT22;12324;48.146;11.502;2023-04-07T12:37:31;12.80;99.90
24176;DHT22;12324;48.146;11.502;2023-04-07T12:39:58;12.70;99.90
24176;DHT22;12324;48.146;11.502;2023-04-07T12:42:25;12.80;99.90
24176;DHT22;12324;48.146;11.502;2023-04-07T12:44:52;12.80;99.90
24176;DHT22;12324;48.146;11.502;2023-04-07T12:47:19;12.70;99.90
24176;DHT22;12324;48.146;11.502;2023-04-07T12:49:46;12.50;99.90
24176;DHT22;12324;48.146;11.502;2023-04-07T12:52:15;12.20;99.90
24176;DHT22;12324;48.146;11.502;2023-04-07T12:54:42;12.20;99.90
24176;DHT22;12324;48.146;11.502;2023-04-07T12:57:10;12.30;99.90
24176;DHT22;12324;48.146;11.502;2023-04-07T12:59:36;12.10;99.90
24176;DHT22;12324;48.146;11.502;2023-04-07T13:02:03;12.00;99.90
24176;DHT22;12324;48.146;11.502;2023-04-07T13:04:30;12.00;99.90
24176;DHT22;12324;48.146;11.502;2023-04-07T13:06:57;12.00;99.90
24176;DHT22;12324;48.146;11.502;2023-04-07T13:09:24;12.00;99.90
24176;DHT22;12324;48.146;11.502;2023-04-07T13:11:51;11.90;99.90
24176;DHT22;12324;48.146;11.502;2023-04-07T13:14:18;11.90;99.90
24176;DHT22;12324;48.146;11.502;2023-04-07T13:16:44;12.10;99.90
24176;DHT22;12324;48.146;11.502;2023-04-07T13:19:11;12.10;99.90
24176;DHT22;12324;48.146;11.502;2023-04-07T13:21:38;12.00;99.90
24176;DHT22;12324;48.146;11.502;2023-04-07T13:24:08;12.00;99.90
24176;DHT22;12324;48.146;11.502;2023-04-07T13:26:34;12.00;99.90
24176;DHT22;12324;48.146;11.502;2023-04-07T13:29:01;12.00;99.90
24176;DHT22;12324;48.146;11.502;2023-04-07T13:31:28;12.20;99.90
24176;DHT22;12324;48.146;11.502;2023-04-07T13:33:55;12.20;99.90
24176;DHT22;12324;48.146;11.502;2023-04-07T13:36:23;12.20;99.90
24176;DHT22;12324;48.146;11.502;2023-04-07T13:38:51;12.30;99.90
24176;DHT22;12324;48.146;11.502;2023-04-07T13:41:18;12.50;99.90
24176;DHT22;12324;48.146;11.502;2023-04-07T13:43:44;12.50;99.90
24176;DHT22;12324;48.146;11.502;2023-04-07T13:46:12;12.40;99.90
24176;DHT22;12324;48.146;11.502;2023-04-07T13:48:54;12.50;99.90
24176;DHT22;12324;48.146;11.502;2023-04-07T13:51:21;12.60;99.90
24176;DHT22;12324;48.146;11.502;2023-04-07T13:53:48;12.60;99.90
24176;DHT22;12324;48.146;11.502;2023-04-07T13:56:15;12.50;99.90
24176;DHT22;12324;48.146;11.502;2023-04-07T13:58:42;12.30;99.90
24176;DHT22;12324;48.146;11.502;2023-04-07T14:01:08;12.30;99.90
24176;DHT22;12324;48.146;11.502;2023-04-07T14:03:35;12.20;99.90
24176;DHT22;12324;48.146;11.502;2023-04-07T14:06:03;12.10;99.90
24176;DHT22;12324;48.146;11.502;2023-04-07T14:08:29;12.30;99.90
24176;DHT22;12324;48.146;11.502;2023-04-07T14:10:56;12.20;99.90
24176;DHT22;12324;48.146;11.502;2023-04-07T14:13:23;12.10;99.90
24176;DHT22;12324;48.146;11.502;2023-04-07T14:15:50;12.20;99.90
24176;DHT22;12324;48.146;11.502;2023-04-07T14:18:18;12.30;99.90
24176;DHT22;12324;48.146;11.502;2023-04-07T14:20:45;12.30;99.90
24176;DHT22;12324;48.146;11.502;2023-04-07T14:23:12;12.30;99.90
24176;DHT22;12324;48.146;11.502;2023-04-07T14:25:46;12.40;99.90
24176;DHT22;12324;48.146;11.502;2023-04-07T14:28:13;12.30;99.90
24176;DHT22;12324;48.146;11.502;2023-04-07T14:30:39;12.20;99.90
24176;DHT22;12324;48.146;11.502;2023-04-07T14:33:06;12.10;99.90
24176;DHT22;12324;48.146;11.502;2023-04-07T14:35:36;12.20;99.90
24176;DHT22;12324;48.146;11.502;2023-04-07T14:38:03;12.20;99.90
24176;DHT22;12324;48.146;11.502;2023-04-07T14:40:30;12.10;99.90
24176;DHT22;12324;48.146;11.502;2023-04-07T14:42:56;12.10;99.90
24176;DHT22;12324;48.146;11.502;2023-04-07T14:45:27;12.10;99.90
24176;DHT22;12324;48.146;11.502;2023-04-07T14:47:54;12.00;99.90
24176;DHT22;12324;48.146;11.502;2023-04-07T14:50:21;11.80;99.90
24176;DHT22;12324;48.146;11.502;2023-04-07T14:52:49;11.80;99.90
24176;DHT22;12324;48.146;11.502;2023-04-07T14:55:16;11.60;99.90
24176;DHT22;12324;48.146;11.502;2023-04-07T14:57:43;11.60;99.90
24176;DHT22;12324;48.146;11.502;2023-04-07T15:00:10;11.50;99.90
24176;DHT22;12324;48.146;11.502;2023-04-07T15:02:37;11.50;99.90
24176;DHT22;12324;48.146;11.502;2023-04-07T15:05:06;11.50;99.90
24176;DHT22;12324;48.146;11.502;2023-04-07T15:07:32;11.60;99.90
24176;DHT22;12324;48.146;11.502;2023-04-07T15:09:59;11.60;99.90
24176;DHT22;12324;48.146;11.502;2023-04-07T15:12:26;11.40;99.90
24176;DHT22;12324;48.146;11.502;2023-04-07T15:14:55;11.30;99.90
24176;DHT22;12324;48.146;11.502;2023-04-07T15:17:21;11.20;99.90
24176;DHT22;12324;48.146;11.502;2023-04-07T15:20:06;11.10;99.90
24176;DHT22;12324;48.146;11.502;2023-04-07T15:22:33;11.20;99.90
24176;DHT22;12324;48.146;11.502;2023-04-07T15:25:00;11.20;99.90
24176;DHT22;12324;48.146;11.502;2023-04-07T15:27:28;11.10;99.90
24176;DHT22;12324;48.146;11.502;2023-04-07T15:29:55;11.10;99.90
24176;DHT22;12324;48.146;11.502;2023-04-07T15:32:21;11.20;99.90
24176;DHT22;12324;48.146;11.502;2023-04-07T15:34:48;11.20;99.90
24176;DHT22;12324;48.146;11.502;2023-04-07T15:37:15;11.30;99.90
24176;DHT22;12324;48.146;11.502;2023-04-07T15:39:44;11.30;99.90
24176;DHT22;12324;48.146;11.502;2023-04-07T15:42:11;11.30;99.90
24176;DHT22;12324;48.146;11.502;2023-04-07T15:44:38;11.20;99.90
24176;DHT22;12324;48.146;11.502;2023-04-07T15:47:05;11.30;99.90
24176;DHT22;12324;48.146;11.502;2023-04-07T15:49:33;11.10;99.90
24176;DHT22;12324;48.146;11.502;2023-04-07T15:52:00;11.00;99.90
24176;DHT22;12324;48.146;11.502;2023-04-07T15:54:27;11.10;99.90
24176;DHT22;12324;48.146;11.502;2023-04-07T15:56:54;11.00;99.90
24176;DHT22;12324;48.146;11.502;2023-04-07T15:59:21;11.10;99.90
24176;DHT22;12324;48.146;11.502;2023-04-07T16:01:47;10.90;99.90
24176;DHT22;12324;48.146;11.502;2023-04-07T16:04:14;10.90;99.90
24176;DHT22;12324;48.146;11.502;2023-04-07T16:06:41;10.80;99.90
24176;DHT22;12324;48.146;11.502;2023-04-07T16:09:08;10.90;99.90
24176;DHT22;12324;48.146;11.502;2023-04-07T16:11:35;10.90;99.90
24176;DHT22;12324;48.146;11.502;2023-04-07T16:14:01;10.90;99.90
24176;DHT22;12324;48.146;11.502;2023-04-07T16:16:30;10.90;99.90
24176;DHT22;12324;48.146;11.502;2023-04-07T16:18:57;10.90;99.90
24176;DHT22;12324;48.146;11.502;2023-04-07T16:21:24;10.80;99.90
24176;DHT22;12324;48.146;11.502;2023-04-07T16:23:52;10.70;99.90
24176;DHT22;12324;48.146;11.502;2023-04-07T16:26:19;10.80;99.90
24176;DHT22;12324;48.146;11.502;2023-04-07T16:28:47;10.70;99.90
24176;DHT22;12324;48.146;11.502;2023-04-07T16:31:13;10.80;99.90
24176;DHT22;12324;48.146;11.502;2023-04-07T16:33:40;10.80;99.90
24176;DHT22;12324;48.146;11.502;2023-04-07T16:36:07;10.90;99.90
24176;DHT22;12324;48.146;11.502;2023-04-07T16:38:34;10.70;99.90
24176;DHT22;12324;48.146;11.502;2023-04-07T16:41:00;10.70;99.90
24176;DHT22;12324;48.146;11.502;2023-04-07T16:43:30;10.70;99.90
24176;DHT22;12324;48.146;11.502;2023-04-07T16:45:57;10.70;99.90
24176;DHT22;12324;48.146;11.502;2023-04-07T16:48:25;10.70;99.90
24176;DHT22;12324;48.146;11.502;2023-04-07T16:50:52;10.50;99.90
24176;DHT22;12324;48.146;11.502;2023-04-07T16:53:19;10.50;99.90
24176;DHT22;12324;48.146;11.502;2023-04-07T16:55:47;10.40;99.90
24176;DHT22;12324;48.146;11.502;2023-04-07T16:58:14;10.40;99.90
24176;DHT22;12324;48.146;11.502;2023-04-07T17:00:44;10.30;99.90
24176;DHT22;12324;48.146;11.502;2023-04-07T17:03:14;10.30;99.90
24176;DHT22;12324;48.146;11.502;2023-04-07T17:05:41;10.20;99.90
24176;DHT22;12324;48.146;11.502;2023-04-07T17:08:10;10.20;99.90
24176;DHT22;12324;48.146;11.502;2023-04-07T17:10:37;10.10;99.90
24176;DHT22;12324;48.146;11.502;2023-04-07T17:13:03;10.10;99.90
24176;DHT22;12324;48.146;11.502;2023-04-07T17:15:30;10.10;99.90
24176;DHT22;12324;48.146;11.502;2023-04-07T17:17:57;10.00;99.90
24176;DHT22;12324;48.146;11.502;2023-04-07T17:20:24;9.90;99.90
24176;DHT22;12324;48.146;11.502;2023-04-07T17:22:50;9.90;99.90
24176;DHT22;12324;48.146;11.502;2023-04-07T17:25:18;9.80;99.90
24176;DHT22;12324;48.146;11.502;2023-04-07T17:27:44;9.80;99.90
24176;DHT22;12324;48.146;11.502;2023-04-07T17:30:13;9.80;99.90
24176;DHT22;12324;48.146;11.502;2023-04-07T17:32:40;9.80;99.90
24176;DHT22;12324;48.146;11.502;2023-04-07T17:35:07;9.80;99.90
24176;DHT22;12324;48.146;11.502;2023-04-07T17:37:33;9.80;99.90
24176;DHT22;12324;48.146;11.502;2023-04-07T17:40:00;9.80;99.90
24176;DHT22;12324;48.146;11.502;2023-04-07T17:42:27;9.90;99.90
24176;DHT22;12324;48.146;11.502;2023-04-07T17:44:54;9.90;99.90
24176;DHT22;12324;48.146;11.502;2023-04-07T17:47:21;9.90;99.90
24176;DHT22;12324;48.146;11.502;2023-04-07T17:49:48;9.80;99.90
24176;DHT22;12324;48.146;11.502;2023-04-07T17:52:14;9.90;99.90
24176;DHT22;12324;48.146;11.502;2023-04-07T17:54:42;10.00;99.90
24176;DHT22;12324;48.146;11.502;2023-04-07T17:57:08;10.20;99.90
24176;DHT22;12324;48.146;11.502;2023-04-07T17:59:36;10.40;99.90
24176;DHT22;12324;48.146;11.502;2023-04-07T18:02:03;10.40;99.90
24176;DHT22;12324;48.146;11.502;2023-04-07T18:04:36;10.20;99.90
24176;DHT22;12324;48.146;11.502;2023-04-07T18:07:04;9.90;99.90
24176;DHT22;12324;48.146;11.502;2023-04-07T18:09:31;10.00;99.90
24176;DHT22;12324;48.146;11.502;2023-04-07T18:11:59;10.00;99.90
24176;DHT22;12324;48.146;11.502;2023-04-07T18:14:27;10.00;99.90
24176;DHT22;12324;48.146;11.502;2023-04-07T18:16:54;9.90;99.90
24176;DHT22;12324;48.146;11.502;2023-04-07T18:19:21;9.80;99.90
24176;DHT22;12324;48.146;11.502;2023-04-07T18:21:48;9.90;99.90
24176;DHT22;12324;48.146;11.502;2023-04-07T18:24:18;9.80;99.90
24176;DHT22;12324;48.146;11.502;2023-04-07T18:26:46;9.80;99.90
24176;DHT22;12324;48.146;11.502;2023-04-07T18:29:13;9.70;99.90
24176;DHT22;12324;48.146;11.502;2023-04-07T18:31:40;9.60;99.90
24176;DHT22;12324;48.146;11.502;2023-04-07T18:34:10;9.60;99.90
24176;DHT22;12324;48.146;11.502;2023-04-07T18:36:37;9.50;99.90
24176;DHT22;12324;48.146;11.502;2023-04-07T18:39:06;9.50;99.90
24176;DHT22;12324;48.146;11.502;2023-04-07T18:41:33;9.60;99.90
24176;DHT22;12324;48.146;11.502;2023-04-07T18:44:00;9.60;99.90
24176;DHT22;12324;48.146;11.502;2023-04-07T18:53:48;9.40;99.90
24176;DHT22;12324;48.146;11.502;2023-04-07T18:58:43;9.10;99.90
24176;DHT22;12324;48.146;11.502;2023-04-07T19:01:11;9.00;99.90
24176;DHT22;12324;48.146;11.502;2023-04-07T19:03:41;8.90;99.90
24176;DHT22;12324;48.146;11.502;2023-04-07T19:06:08;8.90;99.90
24176;DHT22;12324;48.146;11.502;2023-04-07T19:08:35;8.80;99.90
24176;DHT22;12324;48.146;11.502;2023-04-07T19:11:03;8.80;99.90
24176;DHT22;12324;48.146;11.502;2023-04-07T19:13:29;8.70;99.90
24176;DHT22;12324;48.146;11.502;2023-04-07T19:52:49;8.70;99.90
24176;DHT22;12324;48.146;11.502;2023-04-07T19:55:18;8.40;99.90
24176;DHT22;12324;48.146;11.502;2023-04-07T19:57:45;8.30;99.90
24176;DHT22;12324;48.146;11.502;2023-04-07T20:00:12;8.30;99.90
24176;DHT22;12324;48.146;11.502;2023-04-07T20:02:39;8.30;99.90
24176;DHT22;12324;48.146;11.502;2023-04-07T20:05:06;8.30;99.90
24176;DHT22;12324;48.146;11.502;2023-04-07T20:07:33;8.30;99.90
24176;DHT22;12324;48.146;11.502;2023-04-07T20:10:00;8.30;99.90
24176;DHT22;12324;48.146;11.502;2023-04-07T20:12:26;8.40;99.90
24176;DHT22;12324;48.146;11.502;2023-04-07T20:14:53;8.40;99.90
24176;DHT22;12324;48.146;11.502;2023-04-07T20:17:20;8.30;99.90
24176;DHT22;12324;48.146;11.502;2023-04-07T20:19:46;8.30;99.90
24176;DHT22;12324;48.146;11.502;2023-04-07T20:22:13;8.20;99.90
24176;DHT22;12324;48.146;11.502;2023-04-07T20:24:40;8.30;99.90
24176;DHT22;12324;48.146;11.502;2023-04-07T20:27:06;8.30;99.90